createdAt,value
2023-02-11T00:01:40.670Z,-0.51
2023-02-11T00:04:46.943Z,-0.55
2023-02-11T00:07:53.174Z,-0.57
2023-02-11T00:11:00.137Z,-0.55
2023-02-11T00:14:09.011Z,-0.59
2023-02-11T00:17:15.597Z,-0.64
2023-02-11T00:20:22.468Z,-0.67
2023-02-11T00:23:28.693Z,-0.69
2023-02-11T00:26:37.103Z,-0.72
2023-02-11T00:29:43.776Z,-0.73
2023-02-11T00:32:50.015Z,-0.74
2023-02-11T00:35:56.150Z,-0.73
2023-02-11T00:39:02.646Z,-0.71
2023-02-11T00:42:08.969Z,-0.70
2023-02-11T00:45:13.837Z,-0.70
2023-02-11T00:48:20.302Z,-0.73
2023-02-11T00:51:27.215Z,-0.76
2023-02-11T00:54:33.442Z,-0.78
2023-02-11T00:57:39.744Z,-0.81
2023-02-11T01:00:44.250Z,-0.83
2023-02-11T01:03:50.731Z,-0.88
2023-02-11T01:06:57.006Z,-0.92
2023-02-11T01:10:04.425Z,-0.96
2023-02-11T01:13:10.828Z,-1.01
2023-02-11T01:16:15.717Z,-1.05
2023-02-11T01:19:22.043Z,-1.10
2023-02-11T01:22:26.545Z,-1.16
2023-02-11T01:25:32.749Z,-1.24
2023-02-11T01:28:39.078Z,-1.33
2023-02-11T01:31:43.692Z,-1.41
2023-02-11T01:34:50.010Z,-1.49
2023-02-11T01:37:55.242Z,-1.56
2023-02-11T01:41:03.560Z,-1.61
2023-02-11T01:44:33.639Z,-1.65
2023-02-11T01:47:39.773Z,-1.66
2023-02-11T01:50:47.015Z,-1.69
2023-02-11T01:54:12.128Z,-1.73
2023-02-11T01:57:25.208Z,-1.77
2023-02-11T02:00:37.066Z,-1.78
2023-02-11T02:03:48.157Z,-1.77
2023-02-11T02:07:01.026Z,-1.78
2023-02-11T02:10:13.287Z,-1.82
2023-02-11T02:13:19.522Z,-1.85
2023-02-11T02:16:31.270Z,-1.86
2023-02-11T02:20:02.073Z,-1.89
2023-02-11T02:23:21.203Z,-1.95
2023-02-11T02:26:53.899Z,-1.98
2023-02-11T02:30:25.792Z,-2.01
2023-02-11T02:33:51.437Z,-2.02
2023-02-11T02:37:06.063Z,-2.05
2023-02-11T02:40:17.056Z,-2.04
2023-02-11T02:43:25.053Z,-2.05
2023-02-11T02:46:32.880Z,-2.06
2023-02-11T02:49:39.008Z,-2.06
2023-02-11T02:52:56.047Z,-2.07
2023-02-11T02:56:12.123Z,-2.07
2023-02-11T02:59:26.693Z,-2.04
2023-02-11T03:02:36.689Z,-2.03
2023-02-11T03:05:53.721Z,-2.00
2023-02-11T03:09:05.966Z,-1.99
2023-02-11T03:12:14.336Z,-1.97
2023-02-11T03:15:22.674Z,-1.96
2023-02-11T03:18:32.717Z,-1.97
2023-02-11T03:21:42.131Z,-1.96
2023-02-11T03:24:48.918Z,-1.95
2023-02-11T03:27:58.902Z,-1.92
2023-02-11T03:31:16.096Z,-1.90
2023-02-11T03:34:29.675Z,-1.86
2023-02-11T03:37:41.079Z,-1.82
2023-02-11T03:40:48.524Z,-1.77
2023-02-11T03:43:57.459Z,-1.71
2023-02-11T03:47:06.811Z,-1.66
2023-02-11T03:50:16.476Z,-1.60
2023-02-11T03:53:24.078Z,-1.54
2023-02-11T03:56:34.508Z,-1.49
2023-02-11T03:59:56.384Z,-1.46
2023-02-11T04:03:02.696Z,-1.44
2023-02-11T04:06:07.956Z,-1.41
2023-02-11T04:09:15.040Z,-1.40
2023-02-11T04:12:21.318Z,-1.38
2023-02-11T04:15:27.639Z,-1.36
2023-02-11T04:18:32.224Z,-1.33
2023-02-11T04:21:38.512Z,-1.32
2023-02-11T04:24:44.120Z,-1.29
2023-02-11T04:27:50.370Z,-1.24
2023-02-11T04:30:54.978Z,-1.18
2023-02-11T04:34:01.327Z,-1.13
2023-02-11T04:37:08.514Z,-1.07
2023-02-11T04:40:15.115Z,-1.03
2023-02-11T04:43:21.346Z,-0.99
2023-02-11T04:46:27.886Z,-0.95
2023-02-11T04:49:34.201Z,-0.92
2023-02-11T04:52:40.405Z,-0.88
2023-02-11T04:55:46.705Z,-0.84
2023-02-11T04:58:52.866Z,-0.80
2023-02-11T05:01:59.158Z,-0.76
2023-02-11T05:05:03.683Z,-0.73
2023-02-11T05:08:10.376Z,-0.71
2023-02-11T05:11:19.863Z,-0.69
2023-02-11T05:14:26.145Z,-0.68
2023-02-11T05:17:30.703Z,-0.64
2023-02-11T05:20:38.738Z,-0.61
2023-02-11T05:23:45.658Z,-0.58
2023-02-11T05:26:51.934Z,-0.54
2023-02-11T05:29:58.292Z,-0.52
2023-02-11T05:33:02.841Z,-0.49
2023-02-11T05:36:12.127Z,-0.49
2023-02-11T05:39:18.854Z,-0.47
2023-02-11T05:42:25.065Z,-0.48
2023-02-11T05:45:31.551Z,-0.48
2023-02-11T05:48:37.855Z,-0.46
2023-02-11T05:51:42.321Z,-0.44
2023-02-11T05:54:48.511Z,-0.43
2023-02-11T05:57:54.769Z,-0.41
2023-02-11T06:00:59.285Z,-0.39
2023-02-11T06:04:05.576Z,-0.37
2023-02-11T06:07:10.066Z,-0.34
2023-02-11T06:10:16.470Z,-0.31
2023-02-11T06:13:21.112Z,-0.28
2023-02-11T06:16:27.418Z,-0.25
2023-02-11T06:19:32.496Z,-0.21
2023-02-11T06:22:38.735Z,-0.19
2023-02-11T06:25:44.922Z,-0.18
2023-02-11T06:28:51.481Z,-0.18
2023-02-11T06:31:57.889Z,-0.17
2023-02-11T06:35:04.166Z,-0.16
2023-02-11T06:38:10.384Z,-0.16
2023-02-11T06:41:19.370Z,-0.15
2023-02-11T06:44:25.568Z,-0.13
2023-02-11T06:47:31.842Z,-0.09
2023-02-11T06:50:36.577Z,-0.07
2023-02-11T06:53:45.002Z,-0.04
2023-02-11T06:56:51.410Z,0.02
2023-02-11T06:59:56.027Z,0.09
2023-02-11T07:03:02.379Z,0.17
2023-02-11T07:06:08.180Z,0.27
2023-02-11T07:09:14.414Z,0.38
2023-02-11T07:12:20.636Z,0.46
2023-02-11T07:15:26.953Z,0.53
2023-02-11T07:18:31.572Z,0.58
2023-02-11T07:21:37.650Z,0.63
2023-02-11T07:24:43.916Z,0.69
2023-02-11T07:27:48.392Z,0.76
2023-02-11T07:30:54.734Z,0.84
2023-02-11T07:34:02.540Z,0.90
2023-02-11T07:37:09.063Z,0.97
2023-02-11T07:40:15.452Z,1.08
2023-02-11T07:43:20.056Z,1.18
2023-02-11T07:46:28.051Z,1.25
2023-02-11T07:49:34.372Z,1.34
2023-02-11T07:52:38.899Z,1.43
2023-02-11T07:55:45.531Z,1.52
2023-02-11T07:58:52.108Z,1.59
2023-02-11T08:01:58.301Z,1.61
2023-02-11T08:05:04.605Z,1.64
2023-02-11T08:08:09.181Z,1.67
2023-02-11T08:11:17.439Z,1.67
2023-02-11T08:14:25.375Z,1.67
2023-02-11T08:17:31.660Z,1.66
2023-02-11T08:20:37.857Z,1.67
2023-02-11T08:23:45.724Z,1.70
2023-02-11T08:26:52.133Z,1.70
2023-02-11T08:29:56.624Z,1.74
2023-02-11T08:33:02.937Z,1.78
2023-02-11T08:36:14.021Z,1.81
2023-02-11T08:39:22.555Z,1.83
2023-02-11T08:42:28.852Z,1.85
2023-02-11T08:45:35.223Z,1.86
2023-02-11T08:48:41.676Z,1.87
2023-02-11T08:51:46.518Z,1.89
2023-02-11T08:54:52.757Z,1.92
2023-02-11T08:57:59.060Z,1.95
2023-02-11T09:01:10.111Z,2.01
2023-02-11T09:04:16.371Z,2.06
2023-02-11T09:07:22.610Z,2.12
2023-02-11T09:10:28.872Z,2.18
2023-02-11T09:13:33.863Z,2.25
2023-02-11T09:16:40.171Z,2.30
2023-02-11T09:19:44.791Z,2.39
2023-02-11T09:22:50.977Z,2.47
2023-02-11T09:25:57.317Z,2.55
2023-02-11T09:29:02.246Z,2.64
2023-02-11T09:32:10.004Z,2.74
2023-02-11T09:35:16.362Z,2.85
2023-02-11T09:38:23.725Z,2.97
2023-02-11T09:41:56.360Z,3.08
2023-02-11T09:45:04.701Z,3.22
2023-02-11T09:48:17.078Z,3.37
2023-02-11T09:51:32.709Z,3.55
2023-02-11T09:54:44.576Z,3.78
2023-02-11T09:57:51.265Z,4.02
2023-02-11T10:01:09.900Z,4.22
2023-02-11T10:04:28.888Z,4.39
2023-02-11T10:07:42.190Z,4.57
2023-02-11T10:10:55.169Z,4.71
2023-02-11T10:14:12.279Z,4.82
2023-02-11T10:17:29.950Z,4.92
2023-02-11T10:20:46.182Z,4.96
2023-02-11T10:23:58.392Z,4.98
2023-02-11T10:27:10.114Z,5.02
2023-02-11T10:30:25.263Z,5.11
2023-02-11T10:33:38.244Z,5.21
2023-02-11T10:36:45.798Z,5.27
2023-02-11T10:39:52.096Z,5.34
2023-02-11T10:42:59.153Z,5.41
2023-02-11T10:46:06.506Z,5.44
2023-02-11T10:49:33.062Z,5.49
2023-02-11T10:52:39.250Z,5.62
2023-02-11T10:55:54.427Z,5.72
2023-02-11T10:59:02.930Z,5.78
2023-02-11T11:02:24.947Z,5.85
2023-02-11T11:05:35.532Z,5.90
2023-02-11T11:08:44.478Z,5.92
2023-02-11T11:11:55.852Z,5.96
2023-02-11T11:15:03.745Z,5.95
2023-02-11T11:18:22.568Z,5.89
2023-02-11T11:21:35.572Z,5.77
2023-02-11T11:24:46.683Z,5.75
2023-02-11T11:27:54.989Z,5.79
2023-02-11T11:31:02.506Z,5.87
2023-02-11T11:34:23.231Z,5.97
2023-02-11T11:37:31.825Z,6.05
2023-02-11T11:40:39.540Z,6.10
2023-02-11T11:44:00.560Z,6.11
2023-02-11T11:47:30.999Z,6.11
2023-02-11T11:50:41.192Z,6.17
2023-02-11T11:53:52.916Z,6.26
2023-02-11T11:57:03.975Z,6.27
2023-02-11T12:00:18.537Z,6.26
2023-02-11T12:03:52.072Z,6.23
2023-02-11T12:07:12.751Z,6.35
2023-02-11T12:10:47.518Z,6.46
2023-02-11T12:14:03.950Z,6.43
2023-02-11T12:17:21.502Z,6.39
2023-02-11T12:20:37.544Z,6.40
2023-02-11T12:23:58.970Z,6.45
2023-02-11T12:27:13.194Z,6.49
2023-02-11T12:30:40.446Z,6.51
2023-02-11T12:34:19.233Z,6.45
2023-02-11T12:37:37.714Z,6.33
2023-02-11T12:40:51.808Z,6.21
2023-02-11T12:43:58.361Z,6.18
2023-02-11T12:47:15.550Z,6.14
2023-02-11T12:50:29.450Z,6.04
2023-02-11T12:54:08.066Z,5.96
2023-02-11T12:57:19.421Z,5.89
2023-02-11T13:00:31.466Z,5.86
2023-02-11T13:03:46.558Z,5.83
2023-02-11T13:06:56.891Z,5.78
2023-02-11T13:10:07.739Z,5.73
2023-02-11T13:13:20.552Z,5.68
2023-02-11T13:16:36.458Z,5.60
2023-02-11T13:19:50.608Z,5.51
2023-02-11T13:23:03.420Z,5.45
2023-02-11T13:26:20.397Z,5.40
2023-02-11T13:29:34.898Z,5.36
2023-02-11T13:33:18.371Z,5.34
2023-02-11T13:36:28.311Z,5.30
2023-02-11T13:39:34.661Z,5.25
2023-02-11T13:42:52.619Z,5.21
2023-02-11T13:46:02.416Z,5.15
2023-02-11T13:49:19.828Z,5.11
2023-02-11T13:52:31.013Z,5.08
2023-02-11T13:55:38.240Z,5.06
2023-02-11T13:58:52.308Z,5.03
2023-02-11T14:02:40.646Z,4.99
2023-02-11T14:06:34.730Z,4.93
2023-02-11T14:09:42.325Z,4.90
2023-02-11T14:13:19.229Z,4.90
2023-02-11T14:16:37.308Z,4.88
2023-02-11T14:19:46.318Z,4.87
2023-02-11T14:22:54.650Z,4.85
2023-02-11T14:26:24.659Z,4.84
2023-02-11T14:29:39.016Z,4.81
2023-02-11T14:32:57.365Z,4.79
2023-02-11T14:36:12.679Z,4.75
2023-02-11T14:39:29.940Z,4.71
2023-02-11T14:42:38.090Z,4.69
2023-02-11T14:45:53.114Z,4.65
2023-02-11T14:49:02.567Z,4.63
2023-02-11T14:52:18.364Z,4.61
2023-02-11T14:55:33.128Z,4.58
2023-02-11T14:58:39.354Z,4.56
2023-02-11T15:01:50.907Z,4.54
2023-02-11T15:05:16.180Z,4.54
2023-02-11T15:08:22.503Z,4.52
2023-02-11T15:11:27.117Z,4.49
2023-02-11T15:14:36.549Z,4.46
2023-02-11T15:17:44.862Z,4.43
2023-02-11T15:20:52.545Z,4.40
2023-02-11T15:24:06.175Z,4.36
2023-02-11T15:27:16.305Z,4.32
2023-02-11T15:30:31.017Z,4.29
2023-02-11T15:33:37.259Z,4.26
2023-02-11T15:36:44.016Z,4.25
2023-02-11T15:39:50.994Z,4.25
2023-02-11T15:42:59.024Z,4.26
2023-02-11T15:46:05.872Z,4.26
2023-02-11T15:49:21.591Z,4.27
2023-02-11T15:52:29.448Z,4.28
2023-02-11T15:55:36.661Z,4.28
2023-02-11T15:58:44.992Z,4.26
2023-02-11T16:01:51.892Z,4.23
2023-02-11T16:05:00.059Z,4.23
2023-02-11T16:08:22.137Z,4.23
2023-02-11T16:11:31.897Z,4.23
2023-02-11T16:14:39.400Z,4.24
2023-02-11T16:17:47.110Z,4.21
2023-02-11T16:20:54.127Z,4.15
2023-02-11T16:24:01.063Z,4.07
2023-02-11T16:27:09.362Z,4.02
2023-02-11T16:30:29.021Z,3.98
2023-02-11T16:33:35.127Z,3.95
2023-02-11T16:36:41.454Z,3.93
2023-02-11T16:39:46.157Z,3.90
2023-02-11T16:42:53.621Z,3.88
2023-02-11T16:46:01.022Z,3.86
2023-02-11T16:49:13.921Z,3.84
2023-02-11T16:52:21.866Z,3.83
2023-02-11T16:55:28.081Z,3.78
2023-02-11T16:58:34.379Z,3.75
2023-02-11T17:01:39.730Z,3.75
2023-02-11T17:04:46.506Z,3.75
2023-02-11T17:07:52.824Z,3.73
2023-02-11T17:10:59.084Z,3.71
2023-02-11T17:14:03.752Z,3.71
2023-02-11T17:17:10.400Z,3.71
2023-02-11T17:20:18.392Z,3.69
2023-02-11T17:23:24.509Z,3.69
2023-02-11T17:26:30.787Z,3.71
2023-02-11T17:29:35.247Z,3.71
2023-02-11T17:32:41.560Z,3.72
2023-02-11T17:35:46.085Z,3.75
2023-02-11T17:38:52.596Z,3.76
2023-02-11T17:41:58.850Z,3.77
2023-02-11T17:45:05.422Z,3.78
2023-02-11T17:48:11.661Z,3.77
2023-02-11T17:51:29.521Z,3.77
2023-02-11T17:54:36.089Z,3.77
2023-02-11T17:57:42.698Z,3.77
2023-02-11T18:00:48.913Z,3.77
2023-02-11T18:03:53.559Z,3.77
2023-02-11T18:06:59.905Z,3.77
2023-02-11T18:10:06.419Z,3.76
2023-02-11T18:13:13.467Z,3.76
2023-02-11T18:16:19.662Z,3.75
2023-02-11T18:19:25.925Z,3.75
2023-02-11T18:22:33.720Z,3.72
2023-02-11T18:25:42.342Z,3.72
2023-02-11T18:28:49.141Z,3.70
2023-02-11T18:31:57.925Z,3.69
2023-02-11T18:35:04.397Z,3.69
2023-02-11T18:38:10.981Z,3.68
2023-02-11T18:41:17.535Z,3.65
2023-02-11T18:44:24.798Z,3.63
2023-02-11T18:47:32.452Z,3.64
2023-02-11T18:50:38.751Z,3.65
2023-02-11T18:53:43.434Z,3.65
2023-02-11T18:56:49.665Z,3.64
2023-02-11T18:59:55.998Z,3.62
2023-02-11T19:03:00.482Z,3.63
2023-02-11T19:06:07.491Z,3.61
2023-02-11T19:09:16.957Z,3.61
2023-02-11T19:12:23.240Z,3.62
2023-02-11T19:15:29.528Z,3.60
2023-02-11T19:18:34.170Z,3.57
2023-02-11T19:21:40.598Z,3.55
2023-02-11T19:24:45.158Z,3.52
2023-02-11T19:27:51.389Z,3.50
2023-02-11T19:30:57.825Z,3.50
2023-02-11T19:34:05.279Z,3.50
2023-02-11T19:37:13.352Z,3.52
2023-02-11T19:40:21.362Z,3.51
2023-02-11T19:43:27.666Z,3.50
2023-02-11T19:46:36.518Z,3.52
2023-02-11T19:49:42.861Z,3.50
2023-02-11T19:52:49.323Z,3.48
2023-02-11T19:55:55.600Z,3.48
2023-02-11T19:59:02.666Z,3.50
2023-02-11T20:02:09.012Z,3.50
2023-02-11T20:05:13.547Z,3.51
2023-02-11T20:08:19.740Z,3.50
2023-02-11T20:11:28.235Z,3.49
2023-02-11T20:14:34.611Z,3.49
2023-02-11T20:17:40.950Z,3.49
2023-02-11T20:20:45.419Z,3.49
2023-02-11T20:23:52.794Z,3.48
2023-02-11T20:26:59.062Z,3.49
2023-02-11T20:30:05.540Z,3.48
2023-02-11T20:33:11.754Z,3.47
2023-02-11T20:36:19.670Z,3.47
2023-02-11T20:39:27.348Z,3.48
2023-02-11T20:42:33.626Z,3.49
2023-02-11T20:45:40.093Z,3.51
2023-02-11T20:48:46.398Z,3.53
2023-02-11T20:51:51.338Z,3.56
2023-02-11T20:54:57.542Z,3.57
2023-02-11T20:58:03.927Z,3.56
2023-02-11T21:01:16.804Z,3.55
2023-02-11T21:04:25.582Z,3.56
2023-02-11T21:07:31.836Z,3.57
2023-02-11T21:10:38.102Z,3.57
2023-02-11T21:13:44.818Z,3.57
2023-02-11T21:16:51.642Z,3.57
2023-02-11T21:19:58.012Z,3.59
2023-02-11T21:23:02.575Z,3.59
2023-02-11T21:26:09.700Z,3.60
2023-02-11T21:29:16.015Z,3.61
2023-02-11T21:32:20.628Z,3.59
2023-02-11T21:35:26.884Z,3.58
2023-02-11T21:38:33.662Z,3.58
2023-02-11T21:41:39.894Z,3.58
2023-02-11T21:44:46.173Z,3.58
2023-02-11T21:47:52.453Z,3.59
2023-02-11T21:50:59.102Z,3.59
2023-02-11T21:54:05.634Z,3.59
2023-02-11T21:57:11.828Z,3.60
2023-02-11T22:00:19.760Z,3.61
2023-02-11T22:03:26.075Z,3.61
2023-02-11T22:06:34.968Z,3.62
2023-02-11T22:09:43.178Z,3.61
2023-02-11T22:12:49.869Z,3.60
2023-02-11T22:16:02.542Z,3.59
2023-02-11T22:19:09.005Z,3.59
2023-02-11T22:22:18.395Z,3.59
2023-02-11T22:25:24.697Z,3.59
2023-02-11T22:28:30.923Z,3.57
2023-02-11T22:31:38.051Z,3.58
2023-02-11T22:34:44.626Z,3.60
2023-02-11T22:37:51.217Z,3.59
2023-02-11T22:40:57.535Z,3.59
2023-02-11T22:44:02.222Z,3.59
2023-02-11T22:47:08.541Z,3.58
2023-02-11T22:50:13.465Z,3.59
2023-02-11T22:53:19.730Z,3.59
2023-02-11T22:56:26.772Z,3.58
2023-02-11T22:59:33.062Z,3.58
2023-02-11T23:02:39.531Z,3.60
2023-02-11T23:05:45.817Z,3.60
2023-02-11T23:08:52.093Z,3.60
2023-02-11T23:11:58.008Z,3.59
2023-02-11T23:15:05.216Z,3.60
2023-02-11T23:18:12.362Z,3.59
2023-02-11T23:21:21.309Z,3.58
2023-02-11T23:24:27.668Z,3.58
2023-02-11T23:27:32.225Z,3.58
2023-02-11T23:30:38.501Z,3.58
2023-02-11T23:33:43.050Z,3.58
2023-02-11T23:36:49.298Z,3.58
2023-02-11T23:39:55.527Z,3.58
2023-02-11T23:43:01.833Z,3.56
2023-02-11T23:46:07.000Z,3.55
2023-02-11T23:49:13.234Z,3.55
2023-02-11T23:52:19.657Z,3.55
2023-02-11T23:55:25.952Z,3.55
2023-02-11T23:58:32.608Z,3.54
